createdAt,value
2022-08-03T00:01:44.397Z,21.50
2022-08-03T00:04:12.222Z,21.70
2022-08-03T00:06:41.753Z,21.60
2022-08-03T00:09:09.772Z,21.60
2022-08-03T00:11:37.893Z,21.70
2022-08-03T00:14:08.966Z,21.70
2022-08-03T00:16:36.549Z,21.80
2022-08-03T00:19:04.779Z,21.90
2022-08-03T00:21:32.959Z,21.90
2022-08-03T00:24:01.100Z,21.90
2022-08-03T00:26:28.609Z,21.80
2022-08-03T00:28:55.973Z,21.80
2022-08-03T00:31:40.236Z,21.50
2022-08-03T00:34:11.404Z,21.30
2022-08-03T00:36:40.065Z,21.40
2022-08-03T00:39:07.563Z,21.50
2022-08-03T00:41:35.185Z,21.70
2022-08-03T00:44:03.004Z,21.80
2022-08-03T00:46:30.851Z,21.90
2022-08-03T00:48:58.326Z,21.90
2022-08-03T00:51:25.979Z,21.70
2022-08-03T00:53:53.453Z,21.30
2022-08-03T00:56:20.951Z,21.30
2022-08-03T00:58:48.427Z,21.40
2022-08-03T01:01:22.444Z,21.50
2022-08-03T01:03:49.944Z,21.70
2022-08-03T01:06:32.727Z,21.40
2022-08-03T01:09:06.114Z,20.80
2022-08-03T01:11:59.899Z,20.60
2022-08-03T01:14:42.488Z,20.80
2022-08-03T01:17:21.651Z,21.10
2022-08-03T01:20:07.216Z,21.40
2022-08-03T01:23:03.580Z,21.50
2022-08-03T01:25:54.548Z,21.50
2022-08-03T01:28:56.614Z,21.40
2022-08-03T01:31:29.834Z,21.30
2022-08-03T01:34:05.122Z,21.30
2022-08-03T01:36:40.682Z,21.30
2022-08-03T01:39:09.736Z,21.10
2022-08-03T01:41:48.621Z,21.10
2022-08-03T01:44:29.852Z,20.70
2022-08-03T01:47:01.633Z,20.60
2022-08-03T01:49:32.608Z,20.60
2022-08-03T01:52:14.535Z,20.70
2022-08-03T01:54:45.631Z,20.90
2022-08-03T01:57:14.116Z,21.00
2022-08-03T01:59:43.819Z,21.10
2022-08-03T02:02:32.224Z,21.10
2022-08-03T02:05:03.533Z,21.20
2022-08-03T02:07:33.492Z,21.10
2022-08-03T02:10:03.522Z,20.80
2022-08-03T02:12:32.793Z,20.80
2022-08-03T02:15:02.666Z,21.00
2022-08-03T02:17:38.612Z,21.10
2022-08-03T02:20:11.274Z,21.00
2022-08-03T02:22:43.394Z,21.00
2022-08-03T02:25:23.912Z,21.10
2022-08-03T02:27:55.545Z,21.30
2022-08-03T02:30:31.551Z,21.10
2022-08-03T02:33:01.717Z,21.10
2022-08-03T02:35:31.353Z,21.20
2022-08-03T02:38:02.753Z,21.30
2022-08-03T02:40:32.822Z,21.10
2022-08-03T02:43:07.782Z,20.70
2022-08-03T02:45:45.334Z,20.60
2022-08-03T02:48:28.311Z,20.70
2022-08-03T02:50:59.688Z,20.80
2022-08-03T02:53:29.249Z,20.80
2022-08-03T02:55:58.717Z,20.80
2022-08-03T02:58:27.326Z,20.80
2022-08-03T03:00:55.908Z,20.50
2022-08-03T03:03:23.946Z,20.30
2022-08-03T03:05:57.711Z,20.30
2022-08-03T03:08:28.275Z,20.40
2022-08-03T03:11:00.628Z,20.60
2022-08-03T03:13:30.554Z,20.90
2022-08-03T03:16:01.750Z,21.10
2022-08-03T03:18:31.294Z,21.30
2022-08-03T03:21:00.912Z,21.30
2022-08-03T03:23:29.417Z,21.40
2022-08-03T03:25:58.751Z,21.40
2022-08-03T03:28:26.661Z,21.50
2022-08-03T03:30:55.715Z,21.50
2022-08-03T03:33:24.368Z,21.60
2022-08-03T03:35:52.152Z,21.60
2022-08-03T03:38:20.661Z,21.60
2022-08-03T03:40:49.967Z,21.70
2022-08-03T03:43:18.858Z,21.70
2022-08-03T03:45:47.690Z,21.70
2022-08-03T03:48:15.469Z,21.50
2022-08-03T03:50:44.455Z,21.20
2022-08-03T03:53:12.900Z,21.00
2022-08-03T03:55:57.735Z,21.00
2022-08-03T03:58:29.114Z,21.10
2022-08-03T04:00:56.621Z,21.10
2022-08-03T04:03:24.393Z,21.10
2022-08-03T04:06:10.513Z,21.30
2022-08-03T04:08:56.469Z,21.20
2022-08-03T04:11:32.182Z,21.10
2022-08-03T04:14:02.837Z,21.10
2022-08-03T04:16:35.089Z,21.10
2022-08-03T04:19:08.386Z,20.60
2022-08-03T04:21:40.774Z,20.10
2022-08-03T04:24:10.500Z,19.90
2022-08-03T04:26:41.823Z,19.90
2022-08-03T04:29:11.230Z,20.00
2022-08-03T04:31:40.635Z,20.10
2022-08-03T04:34:08.512Z,20.10
2022-08-03T04:36:44.433Z,20.50
2022-08-03T04:39:18.462Z,20.80
2022-08-03T04:42:04.422Z,21.10
2022-08-03T04:44:42.366Z,21.40
2022-08-03T04:47:09.877Z,21.70
2022-08-03T04:49:38.622Z,21.70
2022-08-03T04:52:08.995Z,21.70
2022-08-03T04:54:50.352Z,21.80
2022-08-03T04:57:23.110Z,21.90
2022-08-03T05:00:01.965Z,22.00
2022-08-03T05:02:31.517Z,22.10
2022-08-03T05:04:59.669Z,22.20
2022-08-03T05:07:35.814Z,22.30
2022-08-03T05:10:14.880Z,22.40
2022-08-03T05:12:48.429Z,22.30
2022-08-03T05:15:16.303Z,22.30
2022-08-03T05:17:43.809Z,22.00
2022-08-03T05:20:11.644Z,22.00
2022-08-03T05:22:39.071Z,22.00
2022-08-03T05:25:08.368Z,22.10
2022-08-03T05:27:36.296Z,22.10
2022-08-03T05:30:30.885Z,22.20
2022-08-03T05:32:55.963Z,22.40
2022-08-03T05:36:02.171Z,22.70
2022-08-03T05:38:13.439Z,22.80
2022-08-03T05:40:57.350Z,23.00
2022-08-03T05:43:40.649Z,23.20
2022-08-03T05:46:12.887Z,23.40
2022-08-03T05:48:46.367Z,23.50
2022-08-03T05:51:15.292Z,23.60
2022-08-03T05:53:44.007Z,23.60
2022-08-03T05:56:14.577Z,23.80
2022-08-03T05:58:47.772Z,23.80
2022-08-03T06:01:19.222Z,24.00
2022-08-03T06:03:46.845Z,24.00
2022-08-03T06:06:14.438Z,24.20
2022-08-03T06:08:42.517Z,24.20
2022-08-03T06:11:10.116Z,24.40
2022-08-03T06:13:37.715Z,24.40
2022-08-03T06:16:05.466Z,24.50
2022-08-03T06:18:32.987Z,24.60
2022-08-03T06:21:14.253Z,24.60
2022-08-03T06:23:54.702Z,24.70
2022-08-03T06:26:24.587Z,24.70
2022-08-03T06:28:54.152Z,24.80
2022-08-03T06:31:33.820Z,24.90
2022-08-03T06:34:34.506Z,25.00
2022-08-03T06:36:52.253Z,25.00
2022-08-03T06:39:20.764Z,25.00
2022-08-03T06:41:53.176Z,25.20
2022-08-03T06:44:20.635Z,25.20
2022-08-03T06:46:48.680Z,25.30
2022-08-03T06:49:16.397Z,25.30
2022-08-03T06:52:05.404Z,25.40
2022-08-03T06:54:33.287Z,25.40
2022-08-03T06:57:01.174Z,25.50
2022-08-03T07:00:08.022Z,25.60
2022-08-03T07:02:18.985Z,25.60
2022-08-03T07:04:48.248Z,25.60
2022-08-03T07:07:15.612Z,25.60
2022-08-03T07:09:43.019Z,25.60
2022-08-03T07:12:27.019Z,25.50
2022-08-03T07:15:00.331Z,25.50
2022-08-03T07:17:30.567Z,25.50
2022-08-03T07:19:58.207Z,25.60
2022-08-03T07:22:25.788Z,25.70
2022-08-03T07:24:53.207Z,25.80
2022-08-03T07:27:20.721Z,26.00
2022-08-03T07:29:48.291Z,26.00
2022-08-03T07:32:15.751Z,26.10
2022-08-03T07:34:43.284Z,26.10
2022-08-03T07:37:11.527Z,26.10
2022-08-03T07:39:38.842Z,26.10
2022-08-03T07:42:06.462Z,26.10
2022-08-03T07:44:33.800Z,26.10
2022-08-03T07:47:03.286Z,26.20
2022-08-03T07:49:31.127Z,26.20
2022-08-03T07:52:17.349Z,26.10
2022-08-03T07:54:45.140Z,26.30
2022-08-03T07:57:12.477Z,26.20
2022-08-03T07:59:56.747Z,26.00
2022-08-03T08:02:30.925Z,25.80
2022-08-03T08:05:02.178Z,25.70
2022-08-03T08:07:33.261Z,25.80
2022-08-03T08:10:00.682Z,26.00
2022-08-03T08:12:28.318Z,26.40
2022-08-03T08:14:56.222Z,26.60
2022-08-03T08:17:23.806Z,27.00
2022-08-03T08:19:53.220Z,27.00
2022-08-03T08:22:29.909Z,27.20
2022-08-03T08:24:59.584Z,27.40
2022-08-03T08:28:31.518Z,27.50
2022-08-03T08:30:21.669Z,27.50
2022-08-03T08:36:19.648Z,28.10
2022-08-03T08:39:37.183Z,28.50
2022-08-03T08:42:04.821Z,28.50
2022-08-03T08:44:32.874Z,28.70
2022-08-03T08:47:03.118Z,29.00
2022-08-03T08:49:32.903Z,29.30
2022-08-03T08:52:03.456Z,29.40
2022-08-03T08:54:33.464Z,29.50
2022-08-03T08:57:02.781Z,29.60
2022-08-03T08:59:47.952Z,29.90
2022-08-03T09:02:16.776Z,30.10
2022-08-03T09:04:45.839Z,30.30
2022-08-03T09:07:19.950Z,30.50
2022-08-03T09:10:11.012Z,30.60
2022-08-03T09:12:43.268Z,30.60
2022-08-03T09:15:22.817Z,30.80
2022-08-03T09:17:52.218Z,31.00
2022-08-03T09:20:20.857Z,31.00
2022-08-03T09:23:00.254Z,30.90
2022-08-03T09:25:31.856Z,30.80
2022-08-03T09:28:12.666Z,30.70
2022-08-03T09:30:44.174Z,31.30
2022-08-03T09:33:15.125Z,31.60
2022-08-03T09:35:58.816Z,31.60
2022-08-03T09:38:27.651Z,31.50
2022-08-03T09:40:59.888Z,31.50
2022-08-03T09:43:30.246Z,31.80
2022-08-03T09:47:01.518Z,32.20
2022-08-03T09:49:34.095Z,32.40
2022-08-03T09:52:32.192Z,32.40
2022-08-03T09:56:05.138Z,32.10
2022-08-03T09:58:11.152Z,32.00
2022-08-03T10:01:23.821Z,32.10
2022-08-03T10:04:04.322Z,32.40
2022-08-03T10:06:33.593Z,32.70
2022-08-03T10:09:08.679Z,33.00
2022-08-03T10:12:10.791Z,33.20
2022-08-03T10:14:45.868Z,33.40
2022-08-03T10:17:13.687Z,33.10
2022-08-03T10:19:41.813Z,33.30
2022-08-03T10:22:23.719Z,33.50
2022-08-03T10:24:53.390Z,33.50
2022-08-03T10:27:42.402Z,33.20
2022-08-03T10:30:13.662Z,33.30
2022-08-03T10:33:51.668Z,33.50
2022-08-03T10:36:19.159Z,33.80
2022-08-03T10:38:55.610Z,33.90
2022-08-03T10:41:26.895Z,34.10
2022-08-03T10:44:18.994Z,34.20
2022-08-03T10:46:48.694Z,34.30
2022-08-03T10:49:34.830Z,34.20
2022-08-03T10:52:11.368Z,34.40
2022-08-03T10:55:07.755Z,34.10
2022-08-03T10:57:58.344Z,34.20
2022-08-03T11:00:36.269Z,34.20
2022-08-03T11:03:14.227Z,34.40
2022-08-03T11:05:46.804Z,34.50
2022-08-03T11:08:35.534Z,34.70
2022-08-03T11:11:20.439Z,34.60
2022-08-03T11:14:19.875Z,34.40
2022-08-03T11:16:50.202Z,34.20
2022-08-03T11:19:22.683Z,34.60
2022-08-03T11:21:57.503Z,35.00
2022-08-03T11:24:37.049Z,35.10
2022-08-03T11:27:24.912Z,35.10
2022-08-03T11:30:10.513Z,35.00
2022-08-03T11:32:38.298Z,34.60
2022-08-03T11:35:15.686Z,34.60
2022-08-03T11:38:04.694Z,34.50
2022-08-03T11:40:33.918Z,34.40
2022-08-03T11:43:01.397Z,34.70
2022-08-03T11:45:29.100Z,35.30
2022-08-03T11:47:56.423Z,35.30
2022-08-03T11:50:24.579Z,35.60
2022-08-03T11:52:52.293Z,35.80
2022-08-03T11:55:22.281Z,35.90
2022-08-03T11:59:01.219Z,35.80
2022-08-03T12:00:37.971Z,35.40
2022-08-03T12:03:14.578Z,35.00
2022-08-03T12:05:51.964Z,34.80
2022-08-03T12:08:32.881Z,34.40
2022-08-03T12:11:06.919Z,34.40
2022-08-03T12:14:43.765Z,34.20
2022-08-03T12:16:33.500Z,34.00
2022-08-03T12:19:05.711Z,34.00
2022-08-03T12:21:36.124Z,34.20
2022-08-03T12:24:10.255Z,33.90
2022-08-03T12:26:57.231Z,33.80
2022-08-03T12:29:27.786Z,33.60
2022-08-03T12:32:01.451Z,33.80
2022-08-03T12:34:48.770Z,33.90
2022-08-03T12:37:23.805Z,33.50
2022-08-03T12:40:07.961Z,33.60
2022-08-03T12:42:39.734Z,33.50
2022-08-03T12:45:26.109Z,33.00
2022-08-03T12:47:59.656Z,33.00
2022-08-03T12:50:36.817Z,32.90
2022-08-03T12:53:09.152Z,32.80
2022-08-03T12:55:57.453Z,33.00
2022-08-03T12:58:45.365Z,33.10
2022-08-03T13:01:13.775Z,33.50
2022-08-03T13:03:49.787Z,33.60
2022-08-03T13:06:20.806Z,33.50
2022-08-03T13:08:48.879Z,33.30
2022-08-03T13:11:47.571Z,33.40
2022-08-03T13:14:19.701Z,33.80
2022-08-03T13:16:49.412Z,33.90
2022-08-03T13:19:16.971Z,33.30
2022-08-03T13:21:53.833Z,33.40
2022-08-03T13:24:33.755Z,33.60
2022-08-03T13:27:23.339Z,33.30
2022-08-03T13:29:50.516Z,33.20
2022-08-03T13:32:17.794Z,33.00
2022-08-03T13:34:45.356Z,33.00
2022-08-03T13:37:13.452Z,33.10
2022-08-03T13:39:58.202Z,33.20
2022-08-03T13:42:29.306Z,33.10
2022-08-03T13:44:56.656Z,33.20
2022-08-03T13:47:24.063Z,32.80
2022-08-03T13:49:59.933Z,32.70
2022-08-03T13:52:38.841Z,32.60
2022-08-03T13:55:10.866Z,32.90
2022-08-03T13:58:03.675Z,32.80
2022-08-03T14:00:29.472Z,33.00
2022-08-03T14:03:05.375Z,33.30
2022-08-03T14:05:36.673Z,33.20
2022-08-03T14:08:06.983Z,32.80
2022-08-03T14:10:39.316Z,32.70
2022-08-03T14:13:07.960Z,32.60
2022-08-03T14:15:37.551Z,32.80
2022-08-03T14:18:15.439Z,33.10
2022-08-03T14:20:47.849Z,33.20
2022-08-03T14:23:18.184Z,33.10
2022-08-03T14:25:51.472Z,33.10
2022-08-03T14:28:24.627Z,33.30
2022-08-03T14:30:56.222Z,33.20
2022-08-03T14:33:23.930Z,33.00
2022-08-03T14:35:52.563Z,32.60
2022-08-03T14:38:24.039Z,32.50
2022-08-03T14:40:54.484Z,32.20
2022-08-03T14:44:01.522Z,32.20
2022-08-03T14:46:30.594Z,32.20
2022-08-03T14:50:30.253Z,32.00
2022-08-03T14:51:51.697Z,31.90
2022-08-03T14:54:22.634Z,31.80
2022-08-03T14:56:49.926Z,31.60
2022-08-03T14:59:17.285Z,31.60
2022-08-03T15:02:03.240Z,31.80
2022-08-03T15:04:32.745Z,31.70
2022-08-03T15:07:00.253Z,31.60
2022-08-03T15:09:27.832Z,31.60
2022-08-03T15:11:55.266Z,31.50
2022-08-03T15:14:28.506Z,31.50
2022-08-03T15:17:01.186Z,31.50
2022-08-03T15:20:01.364Z,31.50
2022-08-03T15:22:19.063Z,31.30
2022-08-03T15:24:48.369Z,31.20
2022-08-03T15:27:15.938Z,31.10
2022-08-03T15:30:10.169Z,31.10
2022-08-03T15:32:31.063Z,31.00
2022-08-03T15:34:58.416Z,31.00
2022-08-03T15:37:28.339Z,31.00
2022-08-03T15:40:00.070Z,31.00
2022-08-03T15:42:32.981Z,31.10
2022-08-03T15:45:01.038Z,31.30
2022-08-03T15:47:28.422Z,31.40
2022-08-03T15:49:55.886Z,31.30
2022-08-03T15:52:23.238Z,31.10
2022-08-03T15:54:50.892Z,30.90
2022-08-03T15:57:18.619Z,30.90
2022-08-03T15:59:46.337Z,30.80
2022-08-03T16:02:13.709Z,30.90
2022-08-03T16:04:41.379Z,30.90
2022-08-03T16:07:12.899Z,30.90
2022-08-03T16:09:42.396Z,31.00
2022-08-03T16:12:16.444Z,31.00
2022-08-03T16:14:53.748Z,31.00
2022-08-03T16:17:23.711Z,31.10
2022-08-03T16:19:54.875Z,31.20
2022-08-03T16:22:26.942Z,31.30
2022-08-03T16:24:55.298Z,31.20
2022-08-03T16:27:56.702Z,31.10
2022-08-03T16:30:14.003Z,30.80
2022-08-03T16:32:42.101Z,30.80
2022-08-03T16:35:19.716Z,31.10
2022-08-03T16:37:53.671Z,31.30
2022-08-03T16:40:27.993Z,31.40
2022-08-03T16:42:55.414Z,31.30
2022-08-03T16:45:23.010Z,31.20
2022-08-03T16:48:01.634Z,31.20
2022-08-03T16:50:34.161Z,31.20
2022-08-03T16:53:03.811Z,31.40
2022-08-03T16:55:43.423Z,31.50
2022-08-03T16:58:34.790Z,31.60
2022-08-03T17:01:21.011Z,31.80
2022-08-03T17:04:01.842Z,31.70
2022-08-03T17:06:34.517Z,31.30
2022-08-03T17:09:09.249Z,31.20
2022-08-03T17:11:47.216Z,31.20
2022-08-03T17:14:21.867Z,31.20
2022-08-03T17:16:52.530Z,31.30
2022-08-03T17:19:35.113Z,31.20
2022-08-03T17:22:13.285Z,31.10
2022-08-03T17:24:51.119Z,31.10
2022-08-03T17:28:48.359Z,31.20
2022-08-03T17:30:18.797Z,31.10
2022-08-03T17:32:57.447Z,31.10
2022-08-03T17:35:34.615Z,31.10
2022-08-03T17:38:08.947Z,31.00
2022-08-03T17:40:48.249Z,30.90
2022-08-03T17:44:12.958Z,30.80
2022-08-03T17:46:10.591Z,30.80
2022-08-03T17:48:41.313Z,30.70
2022-08-03T17:51:22.731Z,30.50
2022-08-03T17:54:00.854Z,30.30
2022-08-03T17:56:52.464Z,30.00
2022-08-03T17:59:52.239Z,29.60
2022-08-03T18:02:47.948Z,29.10
2022-08-03T18:05:18.836Z,29.00
2022-08-03T18:08:01.484Z,29.10
2022-08-03T18:10:36.546Z,29.20
2022-08-03T18:13:31.079Z,29.20
2022-08-03T18:16:07.077Z,29.00
2022-08-03T18:18:44.907Z,28.60
2022-08-03T18:21:16.777Z,28.50
2022-08-03T18:23:50.167Z,28.60
2022-08-03T18:26:19.078Z,28.80
2022-08-03T18:28:50.583Z,28.90
2022-08-03T18:32:03.580Z,28.90
2022-08-03T18:34:19.659Z,29.00
2022-08-03T18:36:56.209Z,28.90
2022-08-03T18:39:23.609Z,28.40
2022-08-03T18:41:52.309Z,28.30
2022-08-03T18:44:37.701Z,28.20
2022-08-03T18:47:53.265Z,28.30
2022-08-03T18:50:51.088Z,28.30
2022-08-03T18:54:03.470Z,28.50
2022-08-03T18:56:21.586Z,28.50
2022-08-03T18:59:12.030Z,28.50
2022-08-03T19:02:00.611Z,28.50
2022-08-03T19:04:41.204Z,28.50
2022-08-03T19:07:14.931Z,28.50
2022-08-03T19:09:53.890Z,28.40
2022-08-03T19:12:32.559Z,28.30
2022-08-03T19:15:10.441Z,28.10
2022-08-03T19:17:50.186Z,28.10
2022-08-03T19:20:29.643Z,28.10
2022-08-03T19:22:58.888Z,28.30
2022-08-03T19:25:34.380Z,28.30
2022-08-03T19:28:07.220Z,28.30
2022-08-03T19:30:38.854Z,28.30
2022-08-03T19:33:11.616Z,28.20
2022-08-03T19:35:54.891Z,28.10
2022-08-03T19:38:29.230Z,28.10
2022-08-03T19:41:02.570Z,27.80
2022-08-03T19:43:53.816Z,27.70
2022-08-03T19:46:30.394Z,27.60
2022-08-03T19:49:15.253Z,27.60
2022-08-03T19:52:01.406Z,27.70
2022-08-03T19:55:06.073Z,27.90
2022-08-03T19:57:53.212Z,27.80
2022-08-03T20:00:40.624Z,27.50
2022-08-03T20:03:43.287Z,27.10
2022-08-03T20:06:24.303Z,26.90
2022-08-03T20:08:54.518Z,26.80
2022-08-03T20:11:28.451Z,26.60
2022-08-03T20:13:58.425Z,26.60
2022-08-03T20:16:26.803Z,26.50
2022-08-03T20:18:54.250Z,26.60
2022-08-03T20:21:25.268Z,26.70
2022-08-03T20:24:02.963Z,26.80
2022-08-03T20:26:48.418Z,26.90
2022-08-03T20:30:06.582Z,26.90
2022-08-03T20:32:35.849Z,27.00
2022-08-03T20:35:04.060Z,26.90
2022-08-03T20:37:37.937Z,26.90
2022-08-03T20:40:06.967Z,26.70
2022-08-03T20:42:34.370Z,26.50
2022-08-03T20:45:05.372Z,26.20
2022-08-03T20:47:36.044Z,25.80
2022-08-03T20:50:07.613Z,25.80
2022-08-03T20:52:44.001Z,25.80
2022-08-03T20:55:20.358Z,25.70
2022-08-03T20:58:07.466Z,25.70
2022-08-03T21:00:35.143Z,25.80
2022-08-03T21:03:02.721Z,25.80
2022-08-03T21:05:47.989Z,26.00
2022-08-03T21:08:21.161Z,25.80
2022-08-03T21:10:49.470Z,25.40
2022-08-03T21:13:25.160Z,25.50
2022-08-03T21:16:07.055Z,25.50
2022-08-03T21:18:53.572Z,25.30
2022-08-03T21:21:23.498Z,25.50
2022-08-03T21:23:54.306Z,25.30
2022-08-03T21:26:26.628Z,25.00
2022-08-03T21:28:56.019Z,25.00
2022-08-03T21:31:36.249Z,25.20
2022-08-03T21:34:06.815Z,25.40
2022-08-03T21:36:37.810Z,25.40
2022-08-03T21:39:08.664Z,25.40
2022-08-03T21:41:38.261Z,24.70
2022-08-03T21:44:06.484Z,24.50
2022-08-03T21:46:37.519Z,24.70
2022-08-03T21:49:52.010Z,25.20
2022-08-03T21:51:59.708Z,25.30
2022-08-03T21:54:41.019Z,25.20
2022-08-03T21:57:16.497Z,24.80
2022-08-03T21:59:51.894Z,24.60
2022-08-03T22:02:24.143Z,24.50
2022-08-03T22:04:57.105Z,24.50
2022-08-03T22:07:29.399Z,24.40
2022-08-03T22:09:59.653Z,24.20
2022-08-03T22:12:29.909Z,24.20
2022-08-03T22:15:00.191Z,24.30
2022-08-03T22:17:54.057Z,24.40
2022-08-03T22:20:17.165Z,24.50
2022-08-03T22:22:55.236Z,24.40
2022-08-03T22:25:29.638Z,24.20
2022-08-03T22:28:02.371Z,24.00
2022-08-03T22:30:29.944Z,24.20
2022-08-03T22:32:58.499Z,24.40
2022-08-03T22:35:59.984Z,24.50
2022-08-03T22:38:20.956Z,24.50
2022-08-03T22:40:51.209Z,24.50
2022-08-03T22:43:22.414Z,24.50
2022-08-03T22:46:08.970Z,24.60
2022-08-03T22:48:41.296Z,24.70
2022-08-03T22:51:09.774Z,24.80
2022-08-03T22:53:40.776Z,24.80
2022-08-03T22:56:09.012Z,24.90
2022-08-03T22:58:37.142Z,25.00
2022-08-03T23:01:08.795Z,24.80
2022-08-03T23:03:59.944Z,24.60
2022-08-03T23:06:35.000Z,24.40
2022-08-03T23:09:10.630Z,24.00
2022-08-03T23:11:45.532Z,23.60
2022-08-03T23:14:15.590Z,23.60
2022-08-03T23:16:44.960Z,23.60
2022-08-03T23:19:17.440Z,23.90
2022-08-03T23:22:02.688Z,24.20
2022-08-03T23:24:36.207Z,24.30
2022-08-03T23:27:05.700Z,24.40
2022-08-03T23:29:38.271Z,24.40
2022-08-03T23:32:06.635Z,24.30
2022-08-03T23:34:52.753Z,24.20
2022-08-03T23:37:20.831Z,24.20
2022-08-03T23:39:49.044Z,24.00
2022-08-03T23:42:20.626Z,24.00
2022-08-03T23:44:53.181Z,24.00
2022-08-03T23:47:20.707Z,24.20
2022-08-03T23:49:50.751Z,24.20
2022-08-03T23:52:47.292Z,24.00
2022-08-03T23:55:23.080Z,24.00
2022-08-03T23:57:58.079Z,24.20
